Time;durP1;ratioP1;P1;durP2;ratioP2;P2;SDS_P1;SDS_P2;PMS_P1;PMS_P2;Temp;Humidity;BMP_temperature;BMP_pressure;BME280_temperature;BME280_humidity;BME280_pressure;Samples;Min_cycle;Max_cycle;Signal;HPM_P1;HPM_P2
2023/12/11 00:01:04;;;;;;;1.85;0.47;;;9.80;99.90;;;;;;5019146;28;20030;-70
2023/12/11 00:03:29;;;;;;;3.90;0.50;;;9.80;99.90;;;;;;5019551;28;20030;-70
2023/12/11 00:05:55;;;;;;;0.60;0.30;;;9.80;99.90;;;;;;5018805;28;20026;-70
2023/12/11 00:08:21;;;;;;;0.47;0.20;;;9.80;99.90;;;;;;5019624;28;20057;-70
2023/12/11 00:10:46;;;;;;;4.35;0.70;;;9.80;99.90;;;;;;5019632;28;20024;-70
2023/12/11 00:13:12;;;;;;;0.95;0.30;;;9.80;99.90;;;;;;5019449;28;20033;-70
2023/12/11 00:15:39;;;;;;;1.20;0.10;;;9.80;99.90;;;;;;5019508;28;20026;-70
2023/12/11 00:18:05;;;;;;;2.35;0.30;;;9.80;99.90;;;;;;5018807;28;20026;-70
2023/12/11 00:20:31;;;;;;;0.63;0.20;;;9.80;99.90;;;;;;5018467;28;20195;-70
2023/12/11 00:22:57;;;;;;;2.67;0.52;;;9.80;99.90;;;;;;5017953;28;20026;-70
2023/12/11 00:25:23;;;;;;;4.32;0.40;;;9.80;99.90;;;;;;5018311;28;20037;-71
2023/12/11 00:27:48;;;;;;;1.75;0.43;;;9.80;99.90;;;;;;5018776;28;20153;-70
2023/12/11 00:30:14;;;;;;;0.30;0.20;;;9.80;99.90;;;;;;5018906;28;20045;-71
2023/12/11 00:32:40;;;;;;;1.15;0.32;;;9.70;99.90;;;;;;5018556;28;20033;-71
2023/12/11 00:35:06;;;;;;;0.65;0.22;;;9.70;99.90;;;;;;5018637;28;20030;-71
2023/12/11 00:37:32;;;;;;;2.08;0.38;;;9.70;99.90;;;;;;5018811;28;20037;-71
2023/12/11 00:39:58;;;;;;;0.35;0.20;;;9.70;99.90;;;;;;5018333;28;20033;-71
2023/12/11 00:42:23;;;;;;;1.23;0.38;;;9.70;99.90;;;;;;5019032;28;20021;-71
2023/12/11 00:44:49;;;;;;;1.75;0.25;;;9.60;99.90;;;;;;5017989;28;20112;-71
2023/12/11 00:47:14;;;;;;;0.98;0.25;;;9.60;99.90;;;;;;5018688;28;20121;-71
2023/12/11 00:49:40;;;;;;;5.38;0.32;;;9.60;99.90;;;;;;5018729;28;20028;-71
2023/12/11 00:52:06;;;;;;;1.48;0.30;;;9.50;99.90;;;;;;5017892;28;20030;-71
2023/12/11 00:54:31;;;;;;;3.40;0.38;;;9.50;99.90;;;;;;5018086;28;20026;-71
2023/12/11 00:56:57;;;;;;;0.80;0.25;;;9.40;99.90;;;;;;5017768;28;20025;-71
2023/12/11 00:59:22;;;;;;;0.52;0.30;;;9.50;99.90;;;;;;5018567;28;20026;-71
2023/12/11 01:01:48;;;;;;;2.05;0.38;;;9.50;99.90;;;;;;5018750;28;20026;-71
2023/12/11 01:04:14;;;;;;;0.35;0.30;;;9.50;99.90;;;;;;5018463;28;20034;-71
2023/12/11 01:06:41;;;;;;;5.47;0.40;;;9.50;99.90;;;;;;5017849;28;20033;-71
2023/12/11 01:09:07;;;;;;;2.65;0.38;;;9.40;99.90;;;;;;5018381;28;20030;-71
2023/12/11 01:11:32;;;;;;;0.65;0.43;;;9.40;99.90;;;;;;5017993;28;20088;-71
2023/12/11 01:13:58;;;;;;;1.77;0.35;;;9.40;99.90;;;;;;5017554;28;20026;-71
2023/12/11 01:16:23;;;;;;;3.58;0.70;;;9.40;99.90;;;;;;5017608;28;20049;-71
2023/12/11 01:18:50;;;;;;;2.40;0.60;;;9.50;99.90;;;;;;5017656;28;20100;-71
2023/12/11 01:21:15;;;;;;;0.75;0.17;;;9.50;99.90;;;;;;5017712;28;20038;-71
2023/12/11 01:23:42;;;;;;;3.63;0.40;;;9.70;99.90;;;;;;5017317;28;20041;-71
2023/12/11 01:26:08;;;;;;;1.35;0.40;;;9.70;99.90;;;;;;5017324;28;20121;-71
2023/12/11 01:28:34;;;;;;;1.92;0.40;;;9.70;99.90;;;;;;5017560;28;20033;-71
2023/12/11 01:30:59;;;;;;;1.95;0.40;;;9.60;99.90;;;;;;5017293;28;20026;-71
2023/12/11 01:33:25;;;;;;;0.93;0.50;;;9.60;99.90;;;;;;5017817;28;20041;-71
2023/12/11 01:35:51;;;;;;;3.88;0.40;;;9.40;99.90;;;;;;5016626;28;20018;-71
2023/12/11 01:38:16;;;;;;;2.65;0.50;;;9.50;99.90;;;;;;5017271;28;20030;-71
2023/12/11 01:40:42;;;;;;;0.43;0.30;;;9.50;99.90;;;;;;5018181;28;20052;-71
2023/12/11 01:43:15;;;;;;;2.22;0.57;;;9.50;99.90;;;;;;5016788;28;20038;-71
2023/12/11 01:45:41;;;;;;;5.07;0.50;;;9.70;99.90;;;;;;5016799;28;20053;-71
2023/12/11 01:48:08;;;;;;;1.58;0.38;;;9.80;99.90;;;;;;5017249;28;20033;-71
2023/12/11 01:50:34;;;;;;;0.45;0.32;;;9.70;99.90;;;;;;5016808;28;20022;-71
2023/12/11 01:53:00;;;;;;;2.42;0.40;;;9.70;99.90;;;;;;5016995;28;20072;-70
2023/12/11 01:55:27;;;;;;;2.45;1.33;;;9.60;99.90;;;;;;5016926;28;20025;-71
2023/12/11 01:57:53;;;;;;;1.10;0.38;;;9.60;99.90;;;;;;5017045;28;20117;-71
2023/12/11 02:00:19;;;;;;;3.30;0.40;;;9.50;99.90;;;;;;5017078;28;20053;-71
2023/12/11 02:02:45;;;;;;;0.47;0.30;;;9.40;99.90;;;;;;5017310;28;20022;-71
2023/12/11 02:05:11;;;;;;;0.95;0.50;;;9.40;99.90;;;;;;5016571;28;20030;-70
2023/12/11 02:07:38;;;;;;;0.50;0.40;;;9.40;99.90;;;;;;5017319;28;20033;-71
2023/12/11 02:10:05;;;;;;;6.80;0.50;;;9.50;99.90;;;;;;5016535;28;20022;-70
2023/12/11 02:12:31;;;;;;;4.47;0.30;;;9.40;99.90;;;;;;5016577;28;20057;-70
2023/12/11 02:14:57;;;;;;;1.10;0.30;;;9.30;99.90;;;;;;5017147;28;20033;-70
2023/12/11 02:17:22;;;;;;;1.63;0.25;;;9.30;99.90;;;;;;5016440;28;20041;-71
2023/12/11 02:19:48;;;;;;;2.45;0.85;;;9.40;99.90;;;;;;5016760;28;20021;-70
2023/12/11 02:22:15;;;;;;;2.90;0.50;;;9.40;99.90;;;;;;5016362;28;20029;-70
2023/12/11 02:24:48;;;;;;;6.10;0.45;;;9.40;99.90;;;;;;5016529;28;20029;-70
2023/12/11 02:27:14;;;;;;;2.80;0.47;;;9.40;99.90;;;;;;5017115;28;20076;-70
2023/12/11 02:29:40;;;;;;;2.08;0.60;;;9.30;99.90;;;;;;5017144;28;20022;-70
2023/12/11 02:32:05;;;;;;;3.85;1.13;;;9.40;99.90;;;;;;5016940;28;20061;-71
2023/12/11 02:34:31;;;;;;;1.50;0.50;;;9.50;99.90;;;;;;5016310;28;20025;-71
2023/12/11 02:36:57;;;;;;;3.65;0.85;;;9.60;99.90;;;;;;5016964;28;20026;-71
2023/12/11 02:39:22;;;;;;;1.23;0.50;;;9.70;99.90;;;;;;5016631;28;20057;-71
2023/12/11 02:41:48;;;;;;;3.05;0.57;;;9.80;99.90;;;;;;5016936;28;20052;-71
2023/12/11 02:44:13;;;;;;;3.30;0.70;;;9.70;99.90;;;;;;5016072;28;20036;-71
2023/12/11 02:46:39;;;;;;;0.60;0.45;;;9.80;99.90;;;;;;5020541;28;20048;-71
2023/12/11 02:49:05;;;;;;;5.40;0.70;;;9.80;99.90;;;;;;5022734;28;20041;-71
2023/12/11 02:51:31;;;;;;;4.10;0.63;;;9.80;99.90;;;;;;5023356;28;20021;-71
2023/12/11 02:53:56;;;;;;;2.13;0.40;;;9.80;99.90;;;;;;5022905;28;20111;-71
2023/12/11 02:56:22;;;;;;;0.77;0.40;;;9.70;99.90;;;;;;5022827;28;20095;-69
2023/12/11 02:58:47;;;;;;;3.75;0.50;;;9.70;99.90;;;;;;5022473;28;20030;-69
2023/12/11 03:01:15;;;;;;;3.83;0.70;;;9.60;99.90;;;;;;5023179;28;20033;-69
2023/12/11 03:03:41;;;;;;;2.17;0.60;;;9.70;99.90;;;;;;5023371;28;20026;-69
2023/12/11 03:06:08;;;;;;;4.65;0.90;;;9.70;99.90;;;;;;5022738;28;20053;-69
2023/12/11 03:08:36;;;;;;;3.25;0.55;;;9.70;99.90;;;;;;5022718;28;20109;-69
2023/12/11 03:11:01;;;;;;;2.65;0.65;;;9.70;99.90;;;;;;5022350;28;20026;-69
2023/12/11 03:13:27;;;;;;;7.20;0.60;;;9.70;99.90;;;;;;5022381;28;20121;-69
2023/12/11 03:15:53;;;;;;;5.63;0.70;;;9.80;99.90;;;;;;5022663;28;20057;-69
2023/12/11 03:18:18;;;;;;;2.60;1.10;;;9.80;99.90;;;;;;5023189;28;20079;-69
2023/12/11 03:20:44;;;;;;;1.02;1.02;;;9.80;99.90;;;;;;5022443;28;20026;-69
2023/12/11 03:23:09;;;;;;;2.95;0.80;;;9.80;99.90;;;;;;5022187;28;20036;-69
2023/12/11 03:25:35;;;;;;;4.18;0.95;;;9.80;99.90;;;;;;5023254;28;20022;-69
2023/12/11 03:28:00;;;;;;;7.00;0.98;;;9.70;99.90;;;;;;5022618;28;20018;-69
2023/12/11 03:30:26;;;;;;;6.28;1.00;;;9.70;99.90;;;;;;5022154;28;20026;-69
2023/12/11 03:32:52;;;;;;;6.07;1.50;;;9.70;99.90;;;;;;5022228;28;20022;-69
2023/12/11 03:35:17;;;;;;;5.43;1.10;;;9.80;99.90;;;;;;5022382;28;20018;-69
2023/12/11 03:37:43;;;;;;;9.05;1.40;;;9.80;99.90;;;;;;5022426;28;20026;-69
2023/12/11 03:40:09;;;;;;;5.13;1.00;;;9.80;99.90;;;;;;5022408;28;20034;-69
2023/12/11 03:42:34;;;;;;;5.75;0.77;;;9.70;99.90;;;;;;5021730;28;20022;-69
2023/12/11 03:45:00;;;;;;;8.80;1.58;;;9.80;99.90;;;;;;5022595;28;20065;-69
2023/12/11 03:47:26;;;;;;;7.03;1.20;;;9.80;99.90;;;;;;5021946;28;20026;-69
2023/12/11 03:49:51;;;;;;;6.13;1.10;;;9.80;99.90;;;;;;5021974;28;20052;-69
2023/12/11 03:52:17;;;;;;;5.40;0.68;;;9.80;99.90;;;;;;5022808;28;20047;-69
2023/12/11 03:54:42;;;;;;;10.15;1.10;;;9.80;99.90;;;;;;5022269;28;20094;-69
2023/12/11 03:57:08;;;;;;;11.48;1.52;;;9.80;99.90;;;;;;5020771;28;20022;-69
2023/12/11 03:59:34;;;;;;;4.18;1.20;;;9.80;99.90;;;;;;5018870;28;20065;-69
2023/12/11 04:02:00;;;;;;;9.38;1.35;;;9.80;99.90;;;;;;5018840;28;20148;-69
2023/12/11 04:04:25;;;;;;;7.55;1.00;;;9.80;99.90;;;;;;5018892;28;20030;-69
2023/12/11 04:06:51;;;;;;;7.35;1.15;;;9.90;99.90;;;;;;5018684;28;20050;-69
2023/12/11 04:09:16;;;;;;;1.88;0.90;;;9.90;99.90;;;;;;5019560;28;20032;-69
2023/12/11 04:11:44;;;;;;;12.85;1.40;;;9.90;99.90;;;;;;5019381;28;20022;-69
2023/12/11 04:14:10;;;;;;;6.63;1.25;;;9.90;99.90;;;;;;5018730;28;20033;-69
2023/12/11 04:16:39;;;;;;;5.82;1.10;;;9.80;99.90;;;;;;5018800;28;20025;-69
2023/12/11 04:19:04;;;;;;;5.28;1.55;;;9.90;99.90;;;;;;5018786;28;20052;-69
2023/12/11 04:21:30;;;;;;;4.03;0.93;;;9.90;99.90;;;;;;5018529;28;20026;-69
2023/12/11 04:23:55;;;;;;;7.60;1.50;;;9.90;99.90;;;;;;5018675;28;20044;-69
2023/12/11 04:26:21;;;;;;;12.35;1.23;;;9.90;99.90;;;;;;5019126;28;20056;-69
2023/12/11 04:28:46;;;;;;;6.93;1.42;;;9.90;99.90;;;;;;5019229;28;20057;-69
2023/12/11 04:31:12;;;;;;;6.18;1.10;;;9.90;99.90;;;;;;5018385;28;20022;-69
2023/12/11 04:33:38;;;;;;;5.15;1.10;;;9.90;99.90;;;;;;5018453;28;20030;-69
2023/12/11 04:36:12;;;;;;;9.90;2.35;;;10.00;99.90;;;;;;5018296;28;20026;-69
2023/12/11 04:38:38;;;;;;;8.07;1.33;;;10.00;99.90;;;;;;5018220;28;20026;-69
2023/12/11 04:41:04;;;;;;;9.98;1.27;;;10.00;99.90;;;;;;5018188;28;20029;-69
2023/12/11 04:43:29;;;;;;;8.32;1.65;;;10.00;99.90;;;;;;5018069;28;20069;-69
2023/12/11 04:45:55;;;;;;;8.45;1.55;;;10.00;99.90;;;;;;5018118;28;20021;-69
2023/12/11 04:48:20;;;;;;;12.20;2.45;;;10.00;99.90;;;;;;5019086;28;20026;-69
2023/12/11 04:50:46;;;;;;;7.43;1.55;;;10.00;99.90;;;;;;5018683;28;20025;-69
2023/12/11 04:53:11;;;;;;;10.13;1.85;;;10.00;99.90;;;;;;5018124;28;20022;-69
2023/12/11 04:55:37;;;;;;;7.30;1.10;;;10.00;99.90;;;;;;5018125;28;20022;-69
2023/12/11 04:58:02;;;;;;;7.43;1.42;;;10.00;99.90;;;;;;5017758;28;20022;-69
2023/12/11 05:00:28;;;;;;;18.80;2.72;;;9.90;99.90;;;;;;5018770;28;20105;-69
2023/12/11 05:02:54;;;;;;;11.18;1.38;;;10.00;99.90;;;;;;5017596;28;20030;-69
2023/12/11 05:05:19;;;;;;;9.25;1.27;;;10.00;99.90;;;;;;5017847;28;20077;-69
2023/12/11 05:07:45;;;;;;;9.45;1.98;;;10.00;99.90;;;;;;5017945;28;20029;-69
2023/12/11 05:10:10;;;;;;;16.30;1.85;;;10.00;99.90;;;;;;5016464;28;20018;-69
2023/12/11 05:12:36;;;;;;;8.73;1.20;;;10.00;99.90;;;;;;5017782;28;20053;-69
2023/12/11 05:15:01;;;;;;;11.25;1.17;;;10.00;99.90;;;;;;5017652;28;20029;-69
2023/12/11 05:17:27;;;;;;;11.77;2.33;;;10.00;99.90;;;;;;5017678;28;20022;-69
2023/12/11 05:19:54;;;;;;;9.73;1.23;;;10.10;99.90;;;;;;5017778;28;20057;-69
2023/12/11 05:22:20;;;;;;;9.15;1.85;;;10.10;99.90;;;;;;5017542;28;20026;-69
2023/12/11 05:24:47;;;;;;;8.90;1.55;;;10.10;99.90;;;;;;5018186;28;20057;-69
2023/12/11 05:27:13;;;;;;;11.05;1.85;;;10.10;99.90;;;;;;5017623;28;20022;-69
2023/12/11 05:29:39;;;;;;;9.20;1.63;;;10.10;99.90;;;;;;5018028;28;20018;-69
2023/12/11 05:32:05;;;;;;;11.85;1.67;;;10.20;99.90;;;;;;5017254;28;20080;-69
2023/12/11 05:34:30;;;;;;;7.78;1.40;;;10.20;99.90;;;;;;5017201;28;20034;-65
2023/12/11 05:36:56;;;;;;;10.23;1.90;;;10.20;99.90;;;;;;5017401;28;20082;-65
2023/12/11 05:39:22;;;;;;;3.38;1.20;;;10.20;99.90;;;;;;5017358;28;20022;-65
2023/12/11 05:41:47;;;;;;;12.88;1.83;;;10.20;99.90;;;;;;5017467;28;20029;-65
2023/12/11 05:44:13;;;;;;;2.30;1.10;;;10.20;99.90;;;;;;5040539;22;20041;-67
2023/12/11 05:46:38;;;;;;;11.65;1.40;;;10.30;99.90;;;;;;5017475;28;20105;-67
2023/12/11 05:49:04;;;;;;;13.90;1.65;;;10.30;99.90;;;;;;5033399;28;20095;-67
2023/12/11 05:51:30;;;;;;;9.10;1.42;;;10.30;99.90;;;;;;5016669;28;20018;-67
2023/12/11 05:53:55;;;;;;;4.90;1.10;;;10.30;99.90;;;;;;5017516;28;20029;-67
2023/12/11 05:56:21;;;;;;;11.20;1.48;;;10.30;99.90;;;;;;5017805;28;20113;-67
2023/12/11 05:58:47;;;;;;;6.80;1.10;;;10.20;99.90;;;;;;5017611;28;20033;-67
2023/12/11 06:01:13;;;;;;;10.77;1.88;;;10.20;99.90;;;;;;5018259;28;20026;-67
2023/12/11 06:03:38;;;;;;;13.25;1.92;;;10.20;99.90;;;;;;5017297;28;20076;-67
2023/12/11 06:06:04;;;;;;;8.57;1.25;;;10.20;99.90;;;;;;5017509;28;20022;-67
2023/12/11 06:08:30;;;;;;;9.63;1.85;;;10.20;99.90;;;;;;5016342;28;20030;-67
2023/12/11 06:10:56;;;;;;;10.93;1.50;;;10.20;99.90;;;;;;5016449;28;20118;-67
2023/12/11 06:13:22;;;;;;;8.15;1.75;;;10.20;99.90;;;;;;5017128;28;20018;-67
2023/12/11 06:15:47;;;;;;;10.70;1.23;;;10.20;99.90;;;;;;5017333;28;20129;-67
2023/12/11 06:18:13;;;;;;;9.90;1.33;;;10.20;99.90;;;;;;5016579;28;20090;-67
2023/12/11 06:20:38;;;;;;;7.78;1.48;;;10.20;99.90;;;;;;5016253;28;20022;-67
2023/12/11 06:23:04;;;;;;;4.70;1.15;;;10.20;99.90;;;;;;5016189;28;20022;-67
2023/12/11 06:25:30;;;;;;;10.05;2.38;;;10.20;99.90;;;;;;5016487;28;20036;-67
2023/12/11 06:27:55;;;;;;;11.57;1.75;;;10.10;99.90;;;;;;5017498;28;20076;-67
2023/12/11 06:30:21;;;;;;;15.43;1.77;;;10.10;99.90;;;;;;5016143;28;20018;-67
2023/12/11 06:32:46;;;;;;;14.98;1.88;;;10.10;99.90;;;;;;5016152;28;20050;-67
2023/12/11 06:35:12;;;;;;;5.35;2.38;;;10.10;99.90;;;;;;5017495;28;20037;-67
2023/12/11 06:37:38;;;;;;;5.63;1.15;;;10.10;99.90;;;;;;5016897;28;20026;-68
2023/12/11 06:40:04;;;;;;;10.73;2.08;;;10.20;99.90;;;;;;5016970;28;20026;-67
2023/12/11 06:42:34;;;;;;;7.25;1.08;;;10.20;99.90;;;;;;5016539;28;20057;-67
2023/12/11 06:45:00;;;;;;;6.68;1.25;;;10.20;99.90;;;;;;5016707;28;20034;-67
2023/12/11 06:47:26;;;;;;;8.18;1.27;;;10.20;99.90;;;;;;5016054;28;20029;-67
2023/12/11 06:49:52;;;;;;;12.80;1.48;;;10.20;99.90;;;;;;5015962;28;20033;-67
2023/12/11 06:52:18;;;;;;;8.85;1.55;;;10.20;99.90;;;;;;5016856;28;20014;-67
2023/12/11 06:54:43;;;;;;;11.82;2.58;;;10.20;99.90;;;;;;5016360;28;20033;-67
2023/12/11 06:57:09;;;;;;;6.68;1.00;;;10.20;99.90;;;;;;5016206;28;20030;-67
2023/12/11 06:59:34;;;;;;;2.53;0.70;;;10.20;99.90;;;;;;5016235;28;20029;-67
2023/12/11 07:02:00;;;;;;;7.13;2.08;;;10.30;99.90;;;;;;5015876;28;20022;-67
2023/12/11 07:04:26;;;;;;;10.15;1.48;;;10.30;99.90;;;;;;5015638;28;20022;-67
2023/12/11 07:06:52;;;;;;;4.18;1.40;;;10.30;99.90;;;;;;5017000;28;20022;-67
2023/12/11 07:09:17;;;;;;;9.23;0.80;;;10.30;99.90;;;;;;5016630;28;20022;-67
2023/12/11 07:11:43;;;;;;;5.32;2.30;;;10.30;99.90;;;;;;5015642;28;20097;-67
2023/12/11 07:14:08;;;;;;;9.38;1.45;;;10.30;99.90;;;;;;5016760;28;20046;-67
2023/12/11 07:16:35;;;;;;;5.78;1.52;;;10.20;99.90;;;;;;5016060;28;20026;-67
2023/12/11 07:19:02;;;;;;;6.38;1.88;;;10.20;99.90;;;;;;5017066;28;20030;-65
2023/12/11 07:21:28;;;;;;;4.65;0.98;;;10.20;99.90;;;;;;5015649;28;20030;-66
2023/12/11 07:23:53;;;;;;;10.73;0.98;;;10.30;99.90;;;;;;5016694;28;20077;-66
2023/12/11 07:26:19;;;;;;;6.20;1.27;;;10.30;99.90;;;;;;5016328;28;20026;-66
2023/12/11 07:28:44;;;;;;;9.07;1.27;;;10.30;99.90;;;;;;5015903;28;20022;-66
2023/12/11 07:31:10;;;;;;;3.70;1.33;;;10.30;99.90;;;;;;5015482;28;20029;-66
2023/12/11 07:33:36;;;;;;;7.05;1.85;;;10.30;99.90;;;;;;5017749;28;20022;-66
2023/12/11 07:36:03;;;;;;;4.22;1.23;;;10.40;99.90;;;;;;5020145;28;20021;-66
2023/12/11 07:38:30;;;;;;;5.18;1.20;;;10.40;99.90;;;;;;5019273;28;20036;-66
2023/12/11 07:40:56;;;;;;;8.55;1.15;;;10.40;99.90;;;;;;5020043;28;20026;-66
2023/12/11 07:43:22;;;;;;;11.88;2.50;;;10.40;99.90;;;;;;5019716;28;20030;-66
2023/12/11 07:45:47;;;;;;;15.65;1.73;;;10.40;99.90;;;;;;5019181;28;20118;-66
2023/12/11 07:48:13;;;;;;;6.15;0.95;;;10.40;99.90;;;;;;5019847;28;20029;-65
2023/12/11 07:50:39;;;;;;;2.22;0.88;;;10.40;99.90;;;;;;5019939;28;20026;-66
2023/12/11 07:53:05;;;;;;;4.30;1.05;;;10.40;99.90;;;;;;5019872;28;20150;-66
2023/12/11 07:55:31;;;;;;;5.93;0.98;;;10.40;99.90;;;;;;5019689;28;20106;-66
2023/12/11 07:57:57;;;;;;;6.13;1.13;;;10.40;99.90;;;;;;5018835;28;20048;-66
2023/12/11 08:00:23;;;;;;;8.25;0.82;;;10.40;99.90;;;;;;5019701;28;20068;-66
2023/12/11 08:02:48;;;;;;;7.38;1.23;;;10.50;99.90;;;;;;5019654;28;20026;-66
2023/12/11 08:05:14;;;;;;;4.22;1.20;;;10.50;99.90;;;;;;5019120;28;20048;-66
2023/12/11 08:07:40;;;;;;;9.65;1.15;;;10.60;99.90;;;;;;5018748;28;20080;-67
2023/12/11 08:10:06;;;;;;;6.22;1.50;;;10.60;99.90;;;;;;5018651;28;20032;-66
2023/12/11 08:12:32;;;;;;;6.47;1.13;;;10.70;99.90;;;;;;5019099;28;20028;-67
2023/12/11 08:14:58;;;;;;;12.07;1.30;;;10.70;99.90;;;;;;5018796;28;20121;-66
2023/12/11 08:17:24;;;;;;;8.25;1.38;;;10.70;99.90;;;;;;5019459;28;20054;-66
2023/12/11 08:19:50;;;;;;;7.57;1.27;;;10.70;99.90;;;;;;5019004;28;20025;-66
2023/12/11 08:22:15;;;;;;;3.67;1.00;;;10.80;99.90;;;;;;5018589;28;20036;-66
2023/12/11 08:24:41;;;;;;;4.63;0.75;;;10.80;99.90;;;;;;5018579;28;20030;-66
2023/12/11 08:27:07;;;;;;;5.85;1.63;;;10.80;99.90;;;;;;5019319;28;20022;-66
2023/12/11 08:29:36;;;;;;;12.18;1.08;;;10.80;99.90;;;;;;5019210;28;20098;-66
2023/12/11 08:32:05;;;;;;;3.22;0.80;;;10.80;99.90;;;;;;5018224;28;20053;-66
2023/12/11 08:34:31;;;;;;;5.18;1.52;;;10.90;99.90;;;;;;5018909;28;20050;-66
2023/12/11 08:36:57;;;;;;;3.53;1.55;;;10.90;99.90;;;;;;5019105;28;20030;-67
2023/12/11 08:39:23;;;;;;;5.25;1.33;;;10.90;99.90;;;;;;5018999;28;20025;-66
2023/12/11 08:41:49;;;;;;;5.72;1.25;;;10.90;99.90;;;;;;5018305;28;20029;-66
2023/12/11 08:44:15;;;;;;;13.32;1.40;;;10.90;99.90;;;;;;5018630;28;20037;-66
2023/12/11 08:46:41;;;;;;;10.57;1.40;;;10.90;99.90;;;;;;5019133;28;20029;-67
2023/12/11 08:49:07;;;;;;;11.38;0.90;;;10.90;99.90;;;;;;5018830;28;20100;-66
2023/12/11 08:51:33;;;;;;;18.13;1.58;;;10.90;99.90;;;;;;5017857;28;20164;-66
2023/12/11 08:53:59;;;;;;;5.90;1.50;;;10.90;99.90;;;;;;5018036;28;20120;-66
2023/12/11 08:56:24;;;;;;;10.70;1.35;;;10.80;99.90;;;;;;5018749;28;20104;-66
2023/12/11 08:58:51;;;;;;;6.13;1.30;;;10.70;99.90;;;;;;5017501;28;20032;-67
2023/12/11 09:01:17;;;;;;;5.80;1.10;;;10.70;99.90;;;;;;5018951;28;20105;-66
2023/12/11 09:03:44;;;;;;;11.65;1.52;;;10.70;99.90;;;;;;5018581;28;20029;-66
2023/12/11 09:06:10;;;;;;;7.60;1.27;;;10.70;99.90;;;;;;5017785;28;20133;-66
2023/12/11 09:08:36;;;;;;;11.82;1.23;;;10.60;99.90;;;;;;5017696;28;20053;-67
2023/12/11 09:11:01;;;;;;;8.45;1.85;;;10.70;99.90;;;;;;5017644;28;20018;-67
2023/12/11 09:13:27;;;;;;;12.23;1.95;;;10.70;99.90;;;;;;5018407;28;20104;-67
2023/12/11 09:15:53;;;;;;;7.97;1.52;;;10.80;99.90;;;;;;5017999;28;20022;-67
2023/12/11 09:18:18;;;;;;;13.23;1.40;;;10.90;99.90;;;;;;5018361;28;20018;-67
2023/12/11 09:20:44;;;;;;;8.18;1.02;;;10.90;99.90;;;;;;5018358;28;20027;-67
2023/12/11 09:23:10;;;;;;;13.70;2.05;;;10.90;99.90;;;;;;5018386;28;20023;-67
2023/12/11 09:25:36;;;;;;;10.18;1.38;;;10.90;99.90;;;;;;5018147;28;20030;-68
2023/12/11 09:28:02;;;;;;;7.10;1.15;;;11.00;99.90;;;;;;5018174;28;20049;-67
2023/12/11 09:30:28;;;;;;;3.97;1.10;;;11.00;99.90;;;;;;5018023;28;20022;-67
2023/12/11 09:32:54;;;;;;;5.28;0.95;;;11.00;99.90;;;;;;5018266;28;20029;-67
2023/12/11 09:35:19;;;;;;;3.38;0.95;;;11.00;99.90;;;;;;5017936;28;20025;-67
2023/12/11 09:37:46;;;;;;;8.40;1.42;;;11.00;99.90;;;;;;5017126;28;20026;-67
2023/12/11 09:40:12;;;;;;;6.45;1.05;;;11.10;99.90;;;;;;5017546;28;20076;-67
2023/12/11 09:42:40;;;;;;;9.95;1.15;;;11.10;99.90;;;;;;5017234;28;20026;-67
2023/12/11 09:45:08;;;;;;;12.10;1.50;;;11.20;99.90;;;;;;5018200;28;20033;-67
2023/12/11 09:47:42;;;;;;;5.47;1.02;;;11.20;99.90;;;;;;5017808;28;20022;-66
2023/12/11 09:50:08;;;;;;;5.63;1.30;;;11.30;99.90;;;;;;5017063;28;20116;-66
2023/12/11 09:52:38;;;;;;;13.02;1.55;;;11.30;99.90;;;;;;5017980;28;20022;-67
2023/12/11 09:55:04;;;;;;;14.07;1.45;;;11.30;99.90;;;;;;5017215;28;20089;-67
2023/12/11 09:57:30;;;;;;;11.93;1.40;;;11.40;99.90;;;;;;5017776;28;20025;-67
2023/12/11 09:59:56;;;;;;;8.00;2.13;;;11.40;99.90;;;;;;5017407;28;20138;-67
2023/12/11 10:02:25;;;;;;;8.88;1.42;;;11.40;99.90;;;;;;5017775;28;20052;-67
2023/12/11 10:05:08;;;;;;;6.80;1.63;;;11.40;99.90;;;;;;5017604;28;20021;-66
2023/12/11 10:07:35;;;;;;;5.97;1.60;;;11.30;99.90;;;;;;5016951;28;20026;-67
2023/12/11 10:10:25;;;;;;;12.93;1.50;;;11.20;99.90;;;;;;5017524;28;20029;-66
2023/12/11 10:12:51;;;;;;;12.02;1.35;;;11.20;99.90;;;;;;5017379;28;20018;-67
2023/12/11 10:15:28;;;;;;;15.30;1.42;;;11.20;99.90;;;;;;5017355;28;20060;-67
2023/12/11 10:18:11;;;;;;;9.73;1.38;;;11.10;99.90;;;;;;5017576;28;20030;-67
2023/12/11 10:20:38;;;;;;;11.88;1.70;;;11.00;99.90;;;;;;5016557;28;20030;-67
2023/12/11 10:23:18;;;;;;;7.65;1.65;;;11.00;99.90;;;;;;5016332;28;20034;-66
2023/12/11 10:25:49;;;;;;;3.28;2.03;;;10.90;99.90;;;;;;5016086;28;20026;-67
2023/12/11 10:28:17;;;;;;;12.48;2.25;;;10.90;99.90;;;;;;5017379;28;20026;-67
2023/12/11 10:30:57;;;;;;;6.53;1.83;;;11.00;99.90;;;;;;5017153;28;20018;-67
2023/12/11 10:33:24;;;;;;;9.25;1.65;;;11.10;99.90;;;;;;5016037;28;20018;-67
2023/12/11 10:35:50;;;;;;;12.35;1.65;;;11.10;99.90;;;;;;5017232;28;20029;-67
2023/12/11 10:38:23;;;;;;;5.85;1.98;;;11.10;99.90;;;;;;5016935;28;20026;-67
2023/12/11 10:40:50;;;;;;;16.25;1.48;;;11.10;99.90;;;;;;5016976;28;20018;-67
2023/12/11 10:43:16;;;;;;;6.90;1.50;;;11.00;99.90;;;;;;5017232;28;20026;-67
2023/12/11 10:45:41;;;;;;;5.82;1.08;;;11.10;99.90;;;;;;5017161;28;20026;-67
2023/12/11 10:48:08;;;;;;;11.95;1.65;;;11.10;99.90;;;;;;5016979;28;20025;-66
2023/12/11 10:50:34;;;;;;;6.07;1.38;;;11.10;99.90;;;;;;5016005;28;20018;-67
2023/12/11 10:53:03;;;;;;;12.00;2.22;;;11.00;99.90;;;;;;5016874;28;20025;-66
2023/12/11 10:55:29;;;;;;;13.75;1.52;;;11.00;99.90;;;;;;5016616;28;20068;-67
2023/12/11 10:57:58;;;;;;;11.77;1.67;;;11.10;99.90;;;;;;5015932;28;20026;-66
2023/12/11 11:00:24;;;;;;;9.18;1.60;;;11.10;99.90;;;;;;5017175;28;20025;-66
2023/12/11 11:02:53;;;;;;;10.25;2.38;;;11.10;99.90;;;;;;5017218;28;20105;-66
2023/12/11 11:05:20;;;;;;;7.25;2.08;;;11.20;99.90;;;;;;5016203;28;20022;-66
2023/12/11 11:08:19;;;;;;;10.75;1.23;;;11.20;99.90;;;;;;5019429;28;20072;-68
2023/12/11 11:11:12;;;;;;;9.52;1.23;;;11.20;99.90;;;;;;5020980;28;20026;-68
2023/12/11 11:13:44;;;;;;;9.02;1.70;;;11.30;99.90;;;;;;5015099;28;20116;-66
2023/12/11 11:16:10;;;;;;;12.68;2.35;;;11.30;99.90;;;;;;5020276;28;20108;-66
2023/12/11 11:19:06;;;;;;;13.70;2.17;;;11.30;99.90;;;;;;5019793;28;20044;-67
2023/12/11 11:21:31;;;;;;;11.25;1.92;;;11.20;99.90;;;;;;4980043;28;20041;-67
2023/12/11 11:23:57;;;;;;;7.25;1.13;;;11.10;99.90;;;;;;4963356;28;20118;-67
2023/12/11 11:26:42;;;;;;;7.03;1.30;;;11.10;99.90;;;;;;4980267;28;20035;-67
2023/12/11 11:29:08;;;;;;;7.93;1.20;;;11.10;99.90;;;;;;4963944;28;20027;-66
2023/12/11 11:31:51;;;;;;;6.68;1.33;;;11.00;99.90;;;;;;4964265;28;20037;-67
2023/12/11 11:34:49;;;;;;;18.48;2.03;;;11.00;99.90;;;;;;4963417;28;20027;-66
2023/12/11 11:37:21;;;;;;;6.88;1.02;;;11.00;99.90;;;;;;4922192;29;20044;-67
2023/12/11 11:39:59;;;;;;;6.97;1.38;;;11.00;99.90;;;;;;4906798;29;20055;-67
2023/12/11 11:42:30;;;;;;;6.93;1.20;;;11.10;99.90;;;;;;4906109;29;20032;-67
2023/12/11 11:44:57;;;;;;;5.80;1.08;;;11.20;99.90;;;;;;4994579;22;20034;-69
2023/12/11 11:47:23;;;;;;;9.05;1.25;;;11.20;99.90;;;;;;5020301;28;20022;-69
2023/12/11 11:49:49;;;;;;;13.98;1.20;;;11.30;99.90;;;;;;5019129;28;20022;-69
2023/12/11 11:52:21;;;;;;;2.80;0.57;;;11.40;99.90;;;;;;5020093;28;20068;-69
2023/12/11 11:54:48;;;;;;;4.57;0.93;;;11.40;99.90;;;;;;5019992;28;20037;-69
2023/12/11 11:57:14;;;;;;;5.70;0.93;;;11.40;99.90;;;;;;5020002;28;20028;-70
2023/12/11 11:59:44;;;;;;;6.57;1.30;;;11.50;99.90;;;;;;5019023;28;20022;-69
2023/12/11 12:02:09;;;;;;;5.53;1.00;;;11.40;99.90;;;;;;5019869;28;20026;-69
2023/12/11 12:04:35;;;;;;;10.20;1.20;;;11.40;99.90;;;;;;5019663;28;20041;-69
2023/12/11 12:07:05;;;;;;;2.85;1.10;;;11.40;99.90;;;;;;5019670;28;20021;-69
2023/12/11 12:09:31;;;;;;;5.40;1.15;;;11.40;99.90;;;;;;5019971;28;20061;-69
2023/12/11 12:11:58;;;;;;;5.20;1.23;;;11.40;99.90;;;;;;5019672;28;20044;-69
2023/12/11 12:14:27;;;;;;;18.73;1.83;;;11.30;99.90;;;;;;5019524;28;20113;-69
2023/12/11 12:16:53;;;;;;;8.30;1.30;;;11.30;99.90;;;;;;5019613;28;20033;-69
2023/12/11 12:19:34;;;;;;;7.65;1.30;;;11.30;99.90;;;;;;5018714;28;20025;-69
2023/12/11 12:22:02;;;;;;;13.48;1.58;;;11.40;99.90;;;;;;5019778;28;20084;-69
2023/12/11 12:24:28;;;;;;;8.63;1.23;;;11.50;99.90;;;;;;5019624;28;20018;-69
2023/12/11 12:27:03;;;;;;;12.82;2.05;;;11.50;99.90;;;;;;5019258;28;20097;-69
2023/12/11 12:29:31;;;;;;;8.52;1.25;;;11.60;99.90;;;;;;5019488;28;20022;-69
2023/12/11 12:31:59;;;;;;;8.27;1.25;;;11.70;99.90;;;;;;5019256;28;20041;-69
2023/12/11 12:34:25;;;;;;;5.30;0.90;;;11.80;99.90;;;;;;5018453;28;20026;-69
2023/12/11 12:36:54;;;;;;;3.65;1.00;;;11.80;99.90;;;;;;5018602;28;20029;-69
2023/12/11 12:39:20;;;;;;;5.97;1.25;;;11.80;99.90;;;;;;5019183;28;20030;-69
2023/12/11 12:41:49;;;;;;;2.92;0.80;;;11.90;99.90;;;;;;5018314;28;20053;-69
2023/12/11 12:44:18;;;;;;;5.28;0.75;;;12.00;99.90;;;;;;5019050;28;20030;-69
2023/12/11 12:46:44;;;;;;;5.00;0.98;;;12.10;99.90;;;;;;5019193;28;20017;-69